Bristol Airport, United Kingdom

6:20 AM BST on August 29, 2014 (GMT +0100)
Bristol | Change Station
CLOSE
Current Station
Airport
Location: Bristol Airport,
Elevation: 620 ft
Nearby Weather Stations

Elev 620 ft 51.38 °N, 2.72 °W | Updated 30 minutes ago

Scattered Clouds
Scattered Clouds
55 °F
Feels Like 55 °F
N
12
Wind Variable Wind from SSW

Today
High -- | Low -- °F
--% Chance of Precip.
Yesterday
High -- | Low -- °F
Precip. -- in
6:18 AM 8:03 PM
Waxing Crescent, 12% visible
Pressure 29.86 in
Visibility 6.2 miles
Clouds Scattered Clouds 3100 ft
Dew Point 52 °F
Humidity 88%
Rainfall 0.00 in
Snow Depth Not available.
UV 0 out of 12
Pollen Not available.
Air Quality Not available.
Flu Activity Not available.
METAR EGGD 290450Z 21010KT 9999 SCT031 13/11 Q1011

More Conditions Fewer Conditions

Pressure 29.86 in
Visibility 6.2 miles
Clouds Scattered Clouds 3100 ft
Dew Point 52 °F
Humidity 88%
Rainfall 0.00 in
Snow Depth Not available.
UV 0 out of 12
Pollen Not available.
Air Quality Not available.
Flu Activity Not available.
METAR EGGD 290450Z 21010KT 9999 SCT031 13/11 Q1011

More Conditions Fewer Conditions

10-Day Weather Forecast

Almanac

Astronomy

Aug. 29, 2014 Rise Set
Actual Time 6:18 AM BST 8:03 PM BST
Civil Twilight 5:43 AM BST 8:39 PM BST
Nautical Twilight 4:59 AM BST 9:22 PM BST
Astronomical Twilight 4:11 AM BST 10:10 PM BST
Moon 10:23 AM BST 9:21 PM BST
Length of Visible Light 14h 55m
Length of Day
13h 45m
Tomorrow will be 3m 46s shorter.
Waxing Crescent, 12% of the Moon is Illuminated
Today
Waxing Crescent
Sep 2
First Quarter
Sep 8
Full
Sep 15
Last Quarter
Sep 24
New

Yesterday's Extremes

Country Highs Country Lows

Community

WunderPhotos

Upload Photos

1,748,192 photos uploaded!

Nearby

Snow Depth

Not available.

Earthquake Activity

City Distance Mag. Time & Date
No recent earthquake activity has been reported nearby.
Minimum magnitude displayed is 2.5.

Coastal Water Temperatures

Place Temperature
No Stations Reporting

Nearby Weather Stations